createdAt,value
2023-01-29T00:02:05.720Z,12.33
2023-01-29T00:04:34.683Z,11.40
2023-01-29T00:07:03.242Z,10.03
2023-01-29T00:09:33.323Z,8.83
2023-01-29T00:12:01.956Z,9.83
2023-01-29T00:14:30.803Z,11.30
2023-01-29T00:16:59.401Z,9.60
2023-01-29T00:19:27.836Z,9.13
2023-01-29T00:21:58.223Z,11.17
2023-01-29T00:24:26.758Z,10.10
2023-01-29T00:26:56.716Z,9.97
2023-01-29T00:29:25.142Z,9.87
2023-01-29T00:31:53.616Z,8.30
2023-01-29T00:34:23.527Z,9.30
2023-01-29T00:36:51.933Z,10.47
2023-01-29T00:39:33.612Z,10.63
2023-01-29T00:42:32.269Z,9.87
2023-01-29T00:45:00.685Z,9.73
2023-01-29T00:47:33.556Z,9.40
2023-01-29T00:50:02.387Z,10.27
2023-01-29T00:52:30.881Z,11.87
2023-01-29T00:54:59.913Z,8.77
2023-01-29T00:57:30.983Z,9.87
2023-01-29T00:59:59.454Z,10.07
2023-01-29T01:02:46.804Z,10.23
2023-01-29T01:05:18.783Z,9.00
2023-01-29T01:07:47.524Z,10.40
2023-01-29T01:10:22.219Z,9.47
2023-01-29T01:12:53.564Z,10.57
2023-01-29T01:15:22.353Z,10.60
2023-01-29T01:17:53.927Z,10.80
2023-01-29T01:20:22.407Z,9.00
2023-01-29T01:22:51.138Z,12.10
2023-01-29T01:25:19.978Z,10.47
2023-01-29T01:27:48.523Z,9.67
2023-01-29T01:30:18.846Z,11.07
2023-01-29T01:32:47.608Z,11.33
2023-01-29T01:35:17.106Z,10.23
2023-01-29T01:37:45.579Z,11.63
2023-01-29T01:40:18.045Z,10.37
2023-01-29T01:42:49.542Z,7.90
2023-01-29T01:45:24.307Z,8.70
2023-01-29T01:47:54.457Z,10.10
2023-01-29T01:50:24.864Z,9.67
2023-01-29T01:52:55.367Z,12.27
2023-01-29T01:55:27.209Z,10.63
2023-01-29T01:57:58.824Z,11.57
2023-01-29T02:00:29.003Z,10.67
2023-01-29T02:03:15.304Z,9.77
2023-01-29T02:06:01.829Z,11.43
2023-01-29T02:08:51.292Z,12.73
2023-01-29T02:11:20.097Z,11.57
2023-01-29T02:13:53.791Z,11.37
2023-01-29T02:16:24.619Z,10.87
2023-01-29T02:18:53.598Z,10.23
2023-01-29T02:21:25.391Z,10.77
2023-01-29T02:24:12.980Z,10.43
2023-01-29T02:26:46.540Z,10.63
2023-01-29T02:29:27.354Z,10.50
2023-01-29T02:32:04.752Z,8.40
2023-01-29T02:34:56.509Z,9.70
2023-01-29T02:37:29.063Z,11.33
2023-01-29T02:40:01.808Z,9.37
2023-01-29T02:42:36.005Z,12.33
2023-01-29T02:45:12.413Z,9.73
2023-01-29T02:47:44.179Z,12.33
2023-01-29T02:50:17.859Z,10.80
2023-01-29T02:52:50.878Z,10.03
2023-01-29T02:55:22.754Z,10.00
2023-01-29T02:57:53.408Z,12.57
2023-01-29T03:00:25.974Z,11.83
2023-01-29T03:02:57.202Z,10.43
2023-01-29T03:05:29.822Z,11.17
2023-01-29T03:08:00.191Z,9.53
2023-01-29T03:10:33.811Z,9.77
2023-01-29T03:13:04.421Z,10.87
2023-01-29T03:15:39.250Z,10.80
2023-01-29T03:18:10.400Z,10.87
2023-01-29T03:20:48.401Z,10.80
2023-01-29T03:23:18.759Z,10.70
2023-01-29T03:26:05.222Z,10.63
2023-01-29T03:28:51.948Z,12.60
2023-01-29T03:31:39.566Z,10.70
2023-01-29T03:34:10.289Z,10.13
2023-01-29T03:36:45.546Z,10.43
2023-01-29T03:39:15.081Z,12.70
2023-01-29T03:41:47.847Z,11.60
2023-01-29T03:44:18.255Z,13.03
2023-01-29T03:46:52.580Z,10.67
2023-01-29T03:49:23.403Z,12.27
2023-01-29T03:51:55.754Z,10.47
2023-01-29T03:54:27.925Z,11.67
2023-01-29T03:56:59.607Z,11.87
2023-01-29T03:59:46.378Z,10.23
2023-01-29T04:02:19.364Z,12.67
2023-01-29T04:04:52.020Z,11.03
2023-01-29T04:07:24.663Z,11.40
2023-01-29T04:09:56.466Z,11.40
2023-01-29T04:12:28.597Z,11.40
2023-01-29T04:14:58.803Z,12.57
2023-01-29T04:17:32.971Z,11.67
2023-01-29T04:20:02.540Z,11.47
2023-01-29T04:22:34.095Z,11.87
2023-01-29T04:25:08.612Z,12.03
2023-01-29T04:27:45.156Z,11.77
2023-01-29T04:30:18.744Z,12.53
2023-01-29T04:32:57.863Z,10.73
2023-01-29T04:35:30.147Z,10.80
2023-01-29T04:38:03.465Z,12.30
2023-01-29T04:40:35.183Z,10.97
2023-01-29T04:43:05.711Z,12.23
2023-01-29T04:45:39.138Z,11.27
2023-01-29T04:48:13.284Z,11.57
2023-01-29T04:50:43.592Z,12.63
2023-01-29T04:53:15.344Z,13.20
2023-01-29T04:55:45.746Z,11.87
2023-01-29T04:58:16.604Z,11.30
2023-01-29T05:00:46.484Z,12.37
2023-01-29T05:03:17.411Z,12.10
2023-01-29T05:05:47.503Z,11.90
2023-01-29T05:08:17.815Z,11.70
2023-01-29T05:10:47.345Z,13.63
2023-01-29T05:13:16.645Z,11.60
2023-01-29T05:15:47.284Z,12.67
2023-01-29T05:18:17.689Z,11.30
2023-01-29T05:20:46.667Z,14.13
2023-01-29T05:23:17.724Z,13.07
2023-01-29T05:25:46.634Z,10.87
2023-01-29T05:28:17.078Z,14.50
2023-01-29T05:30:46.480Z,13.80
2023-01-29T05:33:16.251Z,12.93
2023-01-29T05:35:46.737Z,12.73
2023-01-29T05:38:15.419Z,13.70
2023-01-29T05:40:44.134Z,14.97
2023-01-29T05:43:17.165Z,13.17
2023-01-29T05:45:45.958Z,13.00
2023-01-29T05:48:14.581Z,13.67
2023-01-29T05:50:43.303Z,14.90
2023-01-29T05:53:13.300Z,13.33
2023-01-29T05:55:41.745Z,15.03
2023-01-29T05:58:10.509Z,14.10
2023-01-29T06:00:39.106Z,14.07
2023-01-29T06:03:07.853Z,15.07
2023-01-29T06:05:40.037Z,14.53
2023-01-29T06:08:09.601Z,16.30
2023-01-29T06:10:39.478Z,16.50
2023-01-29T06:13:08.181Z,10.17
2023-01-29T06:15:37.323Z,14.97
2023-01-29T06:18:06.346Z,15.93
2023-01-29T06:20:38.673Z,13.83
2023-01-29T06:23:07.277Z,15.70
2023-01-29T06:25:39.289Z,14.90
2023-01-29T06:28:07.719Z,16.17
2023-01-29T06:30:36.307Z,15.70
2023-01-29T06:33:04.797Z,15.23
2023-01-29T06:35:33.469Z,14.03
2023-01-29T06:38:02.261Z,14.27
2023-01-29T06:40:31.213Z,16.03
2023-01-29T06:43:02.244Z,15.20
2023-01-29T06:45:30.810Z,14.20
2023-01-29T06:48:01.320Z,17.80
2023-01-29T06:50:29.998Z,16.13
2023-01-29T06:52:58.453Z,17.40
2023-01-29T06:55:26.932Z,17.10
2023-01-29T06:57:55.585Z,14.33
2023-01-29T07:00:25.733Z,18.30
2023-01-29T07:02:54.216Z,16.30
2023-01-29T07:05:23.416Z,16.00
2023-01-29T07:07:52.146Z,14.30
2023-01-29T07:10:20.760Z,15.60
2023-01-29T07:12:49.318Z,16.83
2023-01-29T07:15:20.722Z,16.27
2023-01-29T07:18:00.153Z,14.93
2023-01-29T07:20:29.290Z,16.07
2023-01-29T07:22:59.360Z,17.17
2023-01-29T07:25:28.101Z,18.73
2023-01-29T07:27:58.704Z,16.30
2023-01-29T07:30:28.743Z,16.80
2023-01-29T07:32:57.445Z,15.90
2023-01-29T07:35:27.623Z,15.70
2023-01-29T07:37:56.071Z,16.83
2023-01-29T07:40:24.570Z,16.47
2023-01-29T07:42:53.229Z,15.53
2023-01-29T07:45:21.721Z,15.40
2023-01-29T07:47:54.474Z,16.50
2023-01-29T07:50:23.133Z,15.67
2023-01-29T07:52:52.933Z,15.50
2023-01-29T07:55:21.508Z,15.53
2023-01-29T07:57:49.932Z,14.07
2023-01-29T08:00:19.349Z,14.93
2023-01-29T08:02:48.497Z,17.10
2023-01-29T08:05:16.969Z,17.63
2023-01-29T08:07:51.473Z,17.03
2023-01-29T08:10:27.636Z,16.60
2023-01-29T08:12:57.763Z,14.77
2023-01-29T08:15:26.917Z,15.53
2023-01-29T08:17:58.323Z,15.60
2023-01-29T08:20:27.718Z,15.10
2023-01-29T08:23:00.688Z,15.20
2023-01-29T08:25:31.961Z,16.67
2023-01-29T08:28:01.258Z,17.13
2023-01-29T08:30:30.453Z,15.83
2023-01-29T08:32:58.976Z,15.90
2023-01-29T08:35:27.881Z,14.40
2023-01-29T08:37:56.720Z,12.87
2023-01-29T08:40:26.103Z,14.07
2023-01-29T08:43:02.101Z,14.37
2023-01-29T08:45:31.598Z,16.63
2023-01-29T08:48:00.414Z,13.87
2023-01-29T08:50:30.953Z,15.43
2023-01-29T08:53:00.006Z,16.13
2023-01-29T08:55:28.762Z,13.97
2023-01-29T08:57:58.572Z,13.63
2023-01-29T09:00:27.115Z,13.67
2023-01-29T09:02:55.545Z,13.33
2023-01-29T09:05:24.157Z,14.07
2023-01-29T09:07:54.264Z,13.17
2023-01-29T09:10:22.793Z,15.93
2023-01-29T09:12:51.834Z,13.63
2023-01-29T09:15:22.221Z,13.47
2023-01-29T09:17:56.728Z,14.47
2023-01-29T09:20:25.413Z,12.67
2023-01-29T09:22:56.717Z,14.07
2023-01-29T09:25:25.280Z,13.37
2023-01-29T09:27:53.837Z,12.80
2023-01-29T09:30:23.822Z,15.40
2023-01-29T09:32:54.126Z,14.80
2023-01-29T09:35:23.455Z,14.17
2023-01-29T09:37:52.482Z,13.57
2023-01-29T09:40:26.812Z,12.60
2023-01-29T09:42:57.896Z,13.87
2023-01-29T09:45:29.053Z,12.17
2023-01-29T09:48:00.380Z,13.23
2023-01-29T09:50:31.460Z,11.97
2023-01-29T09:53:02.927Z,11.97
2023-01-29T09:55:35.273Z,11.70
2023-01-29T09:58:07.664Z,13.30
2023-01-29T10:00:39.999Z,12.83
2023-01-29T10:03:17.361Z,13.67
2023-01-29T10:05:51.613Z,12.77
2023-01-29T10:08:44.046Z,13.50
2023-01-29T10:11:19.658Z,13.63
2023-01-29T10:13:51.256Z,12.17
2023-01-29T10:16:32.635Z,13.60
2023-01-29T10:19:04.954Z,11.80
2023-01-29T10:21:40.041Z,14.00
2023-01-29T10:24:15.174Z,13.30
2023-01-29T10:26:44.946Z,13.20
2023-01-29T10:29:16.420Z,11.47
2023-01-29T10:31:48.060Z,14.13
2023-01-29T10:34:21.277Z,12.97
2023-01-29T10:36:50.827Z,12.87
2023-01-29T10:39:20.628Z,11.97
2023-01-29T10:42:00.274Z,12.57
2023-01-29T10:44:36.856Z,9.63
2023-01-29T10:47:13.713Z,10.97
2023-01-29T10:49:54.458Z,11.37
2023-01-29T10:52:30.365Z,12.33
2023-01-29T10:55:04.766Z,11.97
2023-01-29T10:57:42.466Z,13.10
2023-01-29T11:00:13.316Z,12.30
2023-01-29T11:02:48.654Z,13.03
2023-01-29T11:05:22.304Z,12.40
2023-01-29T11:07:51.732Z,10.20
2023-01-29T11:10:23.097Z,11.73
2023-01-29T11:12:52.011Z,11.77
2023-01-29T11:15:21.862Z,12.27
2023-01-29T11:18:11.617Z,13.17
2023-01-29T11:20:42.410Z,12.47
2023-01-29T11:23:25.175Z,13.20
2023-01-29T11:25:54.947Z,12.57
2023-01-29T11:28:38.237Z,13.23
2023-01-29T11:31:17.158Z,13.00
2023-01-29T11:33:46.777Z,12.37
2023-01-29T11:36:32.890Z,13.23
2023-01-29T11:39:19.662Z,12.70
2023-01-29T11:41:52.568Z,11.80
2023-01-29T11:44:28.899Z,13.57
2023-01-29T11:46:58.747Z,10.87
2023-01-29T11:49:32.201Z,13.00
2023-01-29T11:52:03.283Z,12.53
2023-01-29T11:54:35.005Z,13.97
2023-01-29T11:57:04.615Z,13.17
2023-01-29T11:59:45.282Z,12.63
2023-01-29T12:02:21.892Z,12.13
2023-01-29T12:04:50.558Z,12.33
2023-01-29T12:07:21.629Z,9.80
2023-01-29T12:09:52.031Z,11.87
2023-01-29T12:12:30.104Z,12.90
2023-01-29T12:15:05.264Z,13.03
2023-01-29T12:17:35.408Z,11.80
2023-01-29T12:20:07.286Z,9.33
2023-01-29T12:22:41.988Z,13.77
2023-01-29T12:25:21.520Z,12.73
2023-01-29T12:27:53.652Z,13.93
2023-01-29T12:30:25.545Z,12.63
2023-01-29T12:32:59.841Z,12.00
2023-01-29T12:35:30.756Z,12.87
2023-01-29T12:38:03.201Z,11.73
2023-01-29T12:40:33.546Z,12.20
2023-01-29T12:43:06.632Z,11.40
2023-01-29T12:45:37.044Z,12.27
2023-01-29T12:48:08.356Z,11.27
2023-01-29T12:50:39.700Z,10.23
2023-01-29T12:53:17.946Z,12.50
2023-01-29T12:55:48.018Z,11.07
2023-01-29T12:58:18.055Z,10.93
2023-01-29T13:00:48.551Z,10.40
2023-01-29T13:03:21.497Z,10.70
2023-01-29T13:05:52.342Z,10.87
2023-01-29T13:08:24.161Z,10.50
2023-01-29T13:10:53.753Z,10.63
2023-01-29T13:13:26.808Z,11.63
2023-01-29T13:15:55.915Z,10.47
2023-01-29T13:18:42.651Z,11.60
2023-01-29T13:21:15.637Z,10.97
2023-01-29T13:23:48.208Z,11.60
2023-01-29T13:26:20.167Z,8.33
2023-01-29T13:28:50.421Z,10.20
2023-01-29T13:31:32.942Z,9.77
2023-01-29T13:34:06.757Z,11.10
2023-01-29T13:36:35.843Z,10.13
2023-01-29T13:39:08.273Z,11.07
2023-01-29T13:41:38.090Z,12.07
2023-01-29T13:44:11.611Z,11.73
2023-01-29T13:46:42.919Z,12.03
2023-01-29T13:49:25.183Z,12.53
2023-01-29T13:51:54.933Z,11.90
2023-01-29T13:54:26.485Z,13.37
2023-01-29T13:57:02.396Z,9.63
2023-01-29T13:59:49.945Z,12.40
2023-01-29T14:02:27.014Z,10.40
2023-01-29T14:05:11.562Z,12.23
2023-01-29T14:07:42.033Z,11.67
2023-01-29T14:10:19.444Z,11.17
2023-01-29T14:12:49.490Z,10.13
2023-01-29T14:15:23.587Z,11.67
2023-01-29T14:18:15.655Z,11.43
2023-01-29T14:20:52.728Z,10.97
2023-01-29T14:23:30.096Z,9.40
2023-01-29T14:26:01.639Z,10.20
2023-01-29T14:28:32.045Z,10.53
2023-01-29T14:31:02.389Z,10.57
2023-01-29T14:33:36.100Z,10.60
2023-01-29T14:36:12.225Z,11.03
2023-01-29T14:38:42.343Z,10.13
2023-01-29T14:41:29.249Z,11.20
2023-01-29T14:44:35.487Z,10.93
2023-01-29T14:47:19.524Z,9.50
2023-01-29T14:49:52.140Z,10.30
2023-01-29T14:52:22.489Z,8.33
2023-01-29T14:54:52.642Z,11.47
2023-01-29T14:57:23.816Z,10.17
2023-01-29T14:59:56.780Z,9.93
2023-01-29T15:02:27.885Z,8.20
2023-01-29T15:04:58.365Z,8.20
2023-01-29T15:07:30.282Z,9.00
2023-01-29T15:10:21.093Z,10.37
2023-01-29T15:12:51.454Z,9.07
2023-01-29T15:15:22.663Z,10.20
2023-01-29T15:17:54.319Z,8.57
2023-01-29T15:20:28.417Z,9.47
2023-01-29T15:22:57.074Z,8.23
2023-01-29T15:25:26.000Z,8.07
2023-01-29T15:27:56.837Z,9.60
2023-01-29T15:30:28.070Z,8.93
2023-01-29T15:32:56.797Z,8.60
2023-01-29T15:35:29.592Z,10.17
2023-01-29T15:38:02.493Z,9.00
2023-01-29T15:40:31.991Z,9.37
2023-01-29T15:43:02.160Z,9.80
2023-01-29T15:45:32.217Z,8.60
2023-01-29T15:48:04.620Z,8.90
2023-01-29T15:50:34.670Z,9.17
2023-01-29T15:53:05.209Z,8.70
2023-01-29T15:55:34.610Z,9.17
2023-01-29T15:58:04.808Z,8.67
2023-01-29T16:00:33.538Z,9.17
2023-01-29T16:03:02.258Z,8.50
2023-01-29T16:05:33.187Z,9.47
2023-01-29T16:08:02.439Z,8.53
2023-01-29T16:10:32.534Z,8.57
2023-01-29T16:13:01.979Z,10.17
2023-01-29T16:15:32.891Z,9.73
2023-01-29T16:18:02.459Z,9.07
2023-01-29T16:20:35.363Z,8.00
2023-01-29T16:23:04.089Z,7.37
2023-01-29T16:25:32.590Z,8.90
2023-01-29T16:28:05.053Z,9.67
2023-01-29T16:30:35.423Z,7.60
2023-01-29T16:33:05.310Z,7.87
2023-01-29T16:35:34.816Z,7.53
2023-01-29T16:38:05.917Z,7.63
2023-01-29T16:40:35.791Z,8.43
2023-01-29T16:43:19.308Z,6.90
2023-01-29T16:46:03.643Z,9.80
2023-01-29T16:48:34.056Z,7.67
2023-01-29T16:51:06.490Z,7.23
2023-01-29T16:53:37.552Z,7.03
2023-01-29T16:56:07.873Z,8.27
2023-01-29T16:58:37.346Z,8.20
2023-01-29T17:01:09.677Z,6.83
2023-01-29T17:03:41.863Z,8.03
2023-01-29T17:06:11.014Z,7.30
2023-01-29T17:08:40.183Z,8.53
2023-01-29T17:11:10.201Z,8.33
2023-01-29T17:13:40.185Z,7.77
2023-01-29T17:16:18.409Z,6.93
2023-01-29T17:18:47.057Z,7.33
2023-01-29T17:21:16.053Z,7.37
2023-01-29T17:23:44.636Z,9.37
2023-01-29T17:26:14.804Z,8.43
2023-01-29T17:28:44.034Z,5.53
2023-01-29T17:31:13.046Z,7.83
2023-01-29T17:33:44.271Z,7.50
2023-01-29T17:36:14.495Z,7.67
2023-01-29T17:38:43.329Z,8.77
2023-01-29T17:41:15.252Z,7.80
2023-01-29T17:43:44.320Z,9.57
2023-01-29T17:46:15.821Z,9.43
2023-01-29T17:48:46.366Z,8.83
2023-01-29T17:51:15.835Z,8.87
2023-01-29T17:53:46.236Z,9.00
2023-01-29T17:56:27.848Z,9.67
2023-01-29T17:58:56.456Z,9.20
2023-01-29T18:01:26.001Z,9.97
2023-01-29T18:03:55.876Z,10.60
2023-01-29T18:06:30.870Z,10.37
2023-01-29T18:08:59.649Z,10.23
2023-01-29T18:11:28.810Z,10.07
2023-01-29T18:13:58.733Z,10.97
2023-01-29T18:16:36.789Z,10.27
2023-01-29T18:19:12.122Z,11.17
2023-01-29T18:21:40.502Z,7.87
2023-01-29T18:24:10.434Z,10.87
2023-01-29T18:26:39.053Z,9.97
2023-01-29T18:29:07.830Z,9.63
2023-01-29T18:31:36.825Z,9.50
2023-01-29T18:34:07.009Z,7.83
2023-01-29T18:36:35.632Z,12.90
2023-01-29T18:39:06.343Z,10.97
2023-01-29T18:41:35.512Z,8.20
2023-01-29T18:44:05.539Z,9.90
2023-01-29T18:46:34.349Z,9.83
2023-01-29T18:49:03.103Z,6.57
2023-01-29T18:51:33.088Z,9.63
2023-01-29T18:54:01.618Z,9.17
2023-01-29T18:56:29.991Z,10.07
2023-01-29T18:58:58.642Z,7.77
2023-01-29T19:01:27.804Z,8.10
2023-01-29T19:03:56.665Z,7.80
2023-01-29T19:06:25.135Z,7.90
2023-01-29T19:08:55.840Z,7.13
2023-01-29T19:11:24.215Z,7.33
2023-01-29T19:13:52.727Z,7.60
2023-01-29T19:16:21.744Z,6.07
2023-01-29T19:18:50.441Z,9.00
2023-01-29T19:21:19.165Z,9.20
2023-01-29T19:23:47.981Z,7.50
2023-01-29T19:26:17.862Z,8.43
2023-01-29T19:28:46.346Z,6.87
2023-01-29T19:31:14.863Z,8.80
2023-01-29T19:33:43.488Z,8.37
2023-01-29T19:36:13.647Z,8.70
2023-01-29T19:38:43.416Z,6.73
2023-01-29T19:41:12.106Z,8.63
2023-01-29T19:43:43.166Z,9.07
2023-01-29T19:46:11.987Z,8.07
2023-01-29T19:48:40.747Z,7.33
2023-01-29T19:51:10.171Z,6.30
2023-01-29T19:53:39.268Z,8.17
2023-01-29T19:56:08.701Z,7.83
2023-01-29T19:58:37.234Z,7.00
2023-01-29T20:01:08.344Z,8.70
2023-01-29T20:03:38.910Z,8.60
2023-01-29T20:06:08.671Z,7.70
2023-01-29T20:08:37.622Z,6.37
2023-01-29T20:11:07.046Z,7.20
2023-01-29T20:13:35.651Z,8.70
2023-01-29T20:16:05.475Z,8.30
2023-01-29T20:18:35.844Z,8.07
2023-01-29T20:21:08.135Z,7.43
2023-01-29T20:23:38.729Z,9.03
2023-01-29T20:26:09.216Z,8.13
2023-01-29T20:28:37.929Z,7.67
2023-01-29T20:31:07.242Z,7.10
2023-01-29T20:33:39.546Z,6.10
2023-01-29T20:36:10.057Z,6.00
2023-01-29T20:38:38.842Z,6.90
2023-01-29T20:41:08.417Z,7.87
2023-01-29T20:43:38.755Z,8.77
2023-01-29T20:46:07.881Z,7.30
2023-01-29T20:48:38.113Z,7.10
2023-01-29T20:51:09.369Z,6.87
2023-01-29T20:53:38.179Z,7.13
2023-01-29T20:56:07.360Z,7.33
2023-01-29T20:58:36.220Z,7.50
2023-01-29T21:01:09.085Z,7.03
2023-01-29T21:03:39.748Z,5.87
2023-01-29T21:06:09.167Z,5.67
2023-01-29T21:08:38.298Z,7.33
2023-01-29T21:11:07.683Z,3.77
2023-01-29T21:13:36.136Z,6.50
2023-01-29T21:16:04.738Z,5.57
2023-01-29T21:18:33.588Z,8.43
2023-01-29T21:21:03.674Z,7.80
2023-01-29T21:23:32.403Z,5.07
2023-01-29T21:26:07.096Z,8.43
2023-01-29T21:28:35.793Z,7.57
2023-01-29T21:31:05.217Z,8.27
2023-01-29T21:33:34.455Z,7.83
2023-01-29T21:36:04.732Z,8.00
2023-01-29T21:38:33.261Z,6.67
2023-01-29T21:41:02.191Z,7.03
2023-01-29T21:43:30.119Z,7.27
2023-01-29T21:45:59.704Z,8.53
2023-01-29T21:48:28.863Z,8.20
2023-01-29T21:50:57.407Z,9.13
2023-01-29T21:53:27.242Z,7.33
2023-01-29T21:56:00.763Z,9.03
2023-01-29T21:58:29.391Z,7.10
2023-01-29T22:01:35.876Z,7.17
2023-01-29T22:03:47.568Z,8.47
2023-01-29T22:06:16.260Z,9.10
2023-01-29T22:08:46.209Z,8.40
2023-01-29T22:11:15.056Z,8.10
2023-01-29T22:13:43.571Z,8.07
2023-01-29T22:16:12.183Z,8.90
2023-01-29T22:18:40.769Z,6.93
2023-01-29T22:21:09.284Z,9.37
2023-01-29T22:23:38.241Z,8.67
2023-01-29T22:26:10.094Z,8.83
2023-01-29T22:28:38.997Z,8.63
2023-01-29T22:31:07.683Z,8.73
2023-01-29T22:33:36.428Z,8.73
2023-01-29T22:36:05.241Z,6.90
2023-01-29T22:38:33.916Z,9.67
2023-01-29T22:41:02.570Z,9.23
2023-01-29T22:43:32.831Z,9.50
2023-01-29T22:46:01.371Z,8.77
2023-01-29T22:48:30.772Z,10.40
2023-01-29T22:51:09.726Z,9.80
2023-01-29T22:53:38.872Z,9.80
2023-01-29T22:56:08.042Z,9.93
2023-01-29T22:58:38.026Z,8.30
2023-01-29T23:01:07.082Z,9.03
2023-01-29T23:03:36.163Z,9.37
2023-01-29T23:06:04.668Z,11.27
2023-01-29T23:08:34.645Z,9.70
2023-01-29T23:11:14.200Z,8.90
2023-01-29T23:13:45.216Z,9.37
2023-01-29T23:16:13.914Z,10.07
2023-01-29T23:18:42.523Z,10.57
2023-01-29T23:21:11.530Z,10.60
2023-01-29T23:23:45.023Z,9.87
2023-01-29T23:26:30.818Z,10.07
2023-01-29T23:29:01.247Z,10.97
2023-01-29T23:31:29.875Z,10.07
2023-01-29T23:33:58.492Z,9.27
2023-01-29T23:36:27.779Z,10.37
2023-01-29T23:38:56.266Z,10.23
2023-01-29T23:41:25.056Z,9.77
2023-01-29T23:43:54.398Z,10.93
2023-01-29T23:46:24.546Z,9.93
2023-01-29T23:48:53.097Z,8.10
2023-01-29T23:51:21.559Z,9.37
2023-01-29T23:53:50.164Z,10.23
2023-01-29T23:56:18.990Z,8.87
2023-01-29T23:58:48.067Z,10.73
